Time;durP1;ratioP1;P1;durP2;ratioP2;P2;SDS_P1;SDS_P2;PMS_P1;PMS_P2;Temp;Humidity;BMP_temperature;BMP_pressure;BME280_temperature;BME280_humidity;BME280_pressure;Samples;Min_cycle;Max_cycle;Signal;HPM_P1;HPM_P2
2023/11/02 00:04:14;;;;;;;4.10;1.50;;;10.70;99.90;;;;;;6242675;22;20035;-89
2023/11/02 00:06:46;;;;;;;3.95;1.52;;;11.20;99.90;;;;;;6216953;22;20016;-89
2023/11/02 00:09:36;;;;;;;3.83;1.50;;;10.60;99.90;;;;;;6218107;22;20000;-89
2023/11/02 00:12:27;;;;;;;5.20;1.60;;;10.50;99.90;;;;;;6199387;22;19993;-89
2023/11/02 00:18:15;;;;;;;4.28;1.40;;;10.50;99.90;;;;;;6241771;22;20080;-87
2023/11/02 00:20:41;;;;;;;5.28;1.45;;;9.80;99.90;;;;;;6242954;22;19993;-88
2023/11/02 00:23:47;;;;;;;4.35;1.38;;;10.40;99.90;;;;;;6216000;22;20036;-88
2023/11/02 00:26:33;;;;;;;5.93;1.40;;;11.20;99.90;;;;;;6240514;22;20000;-89
2023/11/02 00:28:59;;;;;;;4.65;1.50;;;11.70;99.90;;;;;;6216439;22;20019;-87
2023/11/02 00:31:25;;;;;;;6.13;1.48;;;10.30;99.90;;;;;;6243343;22;19993;-88
2023/11/02 00:33:51;;;;;;;4.55;1.40;;;9.60;99.90;;;;;;6241759;22;19984;-88
2023/11/02 00:36:23;;;;;;;5.45;1.40;;;11.30;99.90;;;;;;6216910;22;20073;-88
2023/11/02 00:38:48;;;;;;;4.65;1.33;;;10.30;99.90;;;;;;6216680;22;19992;-88
2023/11/02 00:41:17;;;;;;;4.03;1.40;;;10.40;99.90;;;;;;6217228;22;19988;-87
2023/11/02 00:43:46;;;;;;;3.08;1.30;;;10.40;99.90;;;;;;6216075;22;20011;-88
2023/11/02 00:46:15;;;;;;;4.63;1.42;;;10.40;99.90;;;;;;6217065;22;19989;-89
2023/11/02 00:48:41;;;;;;;2.78;1.30;;;9.30;99.90;;;;;;6217300;22;19992;-88
2023/11/02 00:51:17;;;;;;;3.60;1.42;;;10.40;99.90;;;;;;6242748;22;20019;-88
2023/11/02 00:53:46;;;;;;;2.80;1.17;;;11.90;99.90;;;;;;6217053;22;20044;-89
2023/11/02 00:56:16;;;;;;;3.47;1.50;;;10.50;99.90;;;;;;6242819;22;20052;-88
2023/11/02 00:58:55;;;;;;;4.97;1.87;;;10.70;99.90;;;;;;6215649;22;20004;-89
2023/11/02 01:01:26;;;;;;;2.50;1.17;;;10.40;99.90;;;;;;6216801;22;19992;-89
2023/11/02 01:04:25;;;;;;;3.60;1.33;;;10.50;99.90;;;;;;6216803;22;20025;-88
2023/11/02 01:06:51;;;;;;;3.35;1.17;;;9.00;99.90;;;;;;6216981;22;20000;-88
2023/11/02 01:09:17;;;;;;;3.72;1.27;;;9.70;99.90;;;;;;6243314;22;20056;-89
2023/11/02 01:11:46;;;;;;;5.22;1.25;;;10.50;99.90;;;;;;6242814;22;19984;-89
2023/11/02 01:14:45;;;;;;;4.28;1.35;;;11.50;99.90;;;;;;6216072;22;19996;-89
2023/11/02 01:17:23;;;;;;;1.95;1.10;;;10.60;99.90;;;;;;6191688;22;19988;-89
2023/11/02 01:20:27;;;;;;;2.83;1.13;;;10.50;99.90;;;;;;6241153;22;20011;-89
2023/11/02 01:23:16;;;;;;;3.80;1.20;;;10.60;99.90;;;;;;6216322;22;20012;-88
2023/11/02 01:25:44;;;;;;;4.78;1.10;;;10.60;99.90;;;;;;6226913;22;19989;-89
2023/11/02 01:28:46;;;;;;;3.05;1.70;;;10.70;99.90;;;;;;6242803;22;20106;-89
2023/11/02 01:31:21;;;;;;;3.20;1.52;;;10.60;99.90;;;;;;6208454;22;19989;-88
2023/11/02 01:33:47;;;;;;;2.00;0.90;;;10.40;99.90;;;;;;6242630;22;19993;-88
2023/11/02 01:36:24;;;;;;;2.47;1.00;;;10.70;99.90;;;;;;6243027;22;19996;-89
2023/11/02 01:39:15;;;;;;;3.35;1.08;;;11.10;99.90;;;;;;6242594;22;19993;-88
2023/11/02 01:41:47;;;;;;;3.63;0.98;;;10.70;99.90;;;;;;6218569;22;20028;-89
2023/11/02 01:44:55;;;;;;;3.30;0.90;;;10.70;99.90;;;;;;6245110;22;19996;-88
2023/11/02 01:47:50;;;;;;;5.60;1.05;;;10.80;99.90;;;;;;6173353;22;20023;-88
2023/11/02 01:50:42;;;;;;;4.25;1.08;;;10.80;99.90;;;;;;6199978;22;20008;-89
2023/11/02 01:53:23;;;;;;;6.22;1.20;;;10.80;99.90;;;;;;6193846;22;19989;-88
2023/11/02 02:03:27;;;;;;;2.13;0.90;;;10.80;99.90;;;;;;6178662;23;20061;-87
2023/11/02 02:06:04;;;;;;;1.63;0.88;;;10.80;99.90;;;;;;6199549;22;20040;-87
2023/11/02 02:08:36;;;;;;;5.53;1.17;;;12.00;99.90;;;;;;6193010;22;20054;-89
2023/11/02 02:11:39;;;;;;;3.58;0.90;;;10.90;99.90;;;;;;6218566;22;20215;-88
2023/11/02 02:14:09;;;;;;;3.35;0.90;;;10.90;99.90;;;;;;6243801;22;20013;-88
2023/11/02 02:16:42;;;;;;;2.33;0.90;;;10.90;99.90;;;;;;6217946;22;19993;-87
2023/11/02 02:19:18;;;;;;;5.22;0.93;;;10.90;99.90;;;;;;6217084;22;20003;-88
2023/11/02 02:21:59;;;;;;;3.65;1.10;;;10.80;99.90;;;;;;6243652;22;19985;-88
2023/11/02 02:24:47;;;;;;;5.47;1.17;;;11.10;99.90;;;;;;6217444;22;20050;-88
2023/11/02 02:27:26;;;;;;;4.05;1.00;;;10.90;99.90;;;;;;6243745;22;19999;-88
2023/11/02 02:29:58;;;;;;;5.57;1.38;;;10.90;99.90;;;;;;6218088;22;20012;-88
2023/11/02 02:32:54;;;;;;;2.38;0.90;;;10.90;99.90;;;;;;6217473;22;19984;-88
2023/11/02 02:35:36;;;;;;;2.83;1.08;;;10.80;99.90;;;;;;6218649;22;20013;-89
2023/11/02 02:38:11;;;;;;;3.67;0.82;;;10.80;99.90;;;;;;6244126;22;20040;-86
2023/11/02 02:41:07;;;;;;;9.93;1.55;;;12.30;99.90;;;;;;6217742;22;20344;-88
2023/11/02 02:43:43;;;;;;;2.72;0.80;;;10.80;99.90;;;;;;6242473;22;20011;-88
2023/11/02 02:46:18;;;;;;;6.00;1.10;;;11.80;99.90;;;;;;6194977;22;19997;-88
2023/11/02 02:48:47;;;;;;;4.32;1.20;;;10.70;99.90;;;;;;6217816;22;20058;-91
2023/11/02 02:51:17;;;;;;;4.57;1.00;;;10.70;99.90;;;;;;6243009;22;20019;-89
2023/11/02 02:54:03;;;;;;;2.42;0.95;;;10.70;99.90;;;;;;6243412;22;19989;-89
2023/11/02 02:57:01;;;;;;;2.85;1.10;;;10.90;99.90;;;;;;6241631;22;19993;-89
2023/11/02 02:59:34;;;;;;;2.67;1.00;;;11.10;99.90;;;;;;6243955;22;20044;-89
2023/11/02 03:02:04;;;;;;;2.72;1.20;;;11.90;99.90;;;;;;6193595;22;19985;-89
2023/11/02 03:04:46;;;;;;;5.15;1.35;;;10.70;99.90;;;;;;6217371;22;20005;-88
2023/11/02 03:07:18;;;;;;;4.38;1.10;;;10.80;99.90;;;;;;6218776;22;20013;-88
2023/11/02 03:09:52;;;;;;;4.47;1.20;;;11.50;99.90;;;;;;6194773;22;19988;-89
2023/11/02 03:12:41;;;;;;;2.90;1.38;;;10.70;99.90;;;;;;6243699;22;20000;-89
2023/11/02 03:15:12;;;;;;;5.40;1.23;;;10.70;99.90;;;;;;6217508;22;19993;-89
2023/11/02 03:18:03;;;;;;;3.53;1.08;;;10.60;99.90;;;;;;6217178;22;20015;-89
2023/11/02 03:20:36;;;;;;;3.05;1.17;;;10.60;99.90;;;;;;6218224;22;20017;-90
2023/11/02 03:23:57;;;;;;;;;;;;;;;;;;;;;
2023/11/02 03:26:40;;;;;;;3.20;1.10;;;10.60;99.90;;;;;;6243825;22;19993;-88
2023/11/02 03:29:16;;;;;;;2.70;1.30;;;10.70;99.90;;;;;;6243347;22;20274;-90
2023/11/02 03:31:55;;;;;;;3.05;1.10;;;11.30;99.90;;;;;;6215642;22;20047;-89
2023/11/02 03:34:35;;;;;;;3.55;1.13;;;10.60;99.90;;;;;;6217697;22;19989;-89
2023/11/02 03:37:28;;;;;;;3.22;1.00;;;10.80;99.90;;;;;;6217597;22;19993;-89
2023/11/02 03:40:11;;;;;;;3.72;1.30;;;10.60;99.90;;;;;;6243672;22;19985;-88
2023/11/02 03:42:57;;;;;;;3.75;1.10;;;10.60;99.90;;;;;;6217216;22;19993;-89
2023/11/02 03:45:48;;;;;;;3.65;1.00;;;10.50;99.90;;;;;;6215991;22;20027;-89
2023/11/02 03:48:37;;;;;;;2.90;1.02;;;9.70;99.90;;;;;;6243142;22;19996;-89
2023/11/02 03:51:20;;;;;;;6.30;1.02;;;12.10;99.90;;;;;;6217612;22;20004;-89
2023/11/02 03:54:05;;;;;;;2.63;0.90;;;10.40;99.90;;;;;;6243577;22;19993;-88
2023/11/02 03:56:50;;;;;;;4.20;1.10;;;10.40;99.90;;;;;;6217798;22;19989;-89
2023/11/02 03:59:36;;;;;;;3.53;1.05;;;10.40;99.90;;;;;;6243468;22;19992;-89
2023/11/02 04:02:09;;;;;;;3.53;1.00;;;10.50;99.90;;;;;;6243085;22;19989;-89
2023/11/02 04:05:00;;;;;;;5.13;1.10;;;10.00;99.90;;;;;;6192968;22;20036;-89
2023/11/02 04:07:59;;;;;;;2.55;1.00;;;10.30;99.90;;;;;;6243557;22;19988;-88
2023/11/02 04:10:29;;;;;;;3.50;1.02;;;10.20;99.90;;;;;;6222999;22;19997;-89
2023/11/02 04:13:04;;;;;;;;;;;10.30;99.90;;;;;;6243915;22;19996;-89
2023/11/02 04:15:31;;;;;;;4.95;1.20;;;10.30;99.90;;;;;;6217784;22;19888;-89
2023/11/02 04:17:58;;;;;;;4.47;1.30;;;10.10;99.90;;;;;;6217716;22;20023;-89
2023/11/02 04:20:28;;;;;;;6.90;1.20;;;10.40;99.90;;;;;;6217532;22;19993;-88
2023/11/02 04:22:58;;;;;;;3.90;1.15;;;9.20;99.90;;;;;;6219033;22;19996;-89
2023/11/02 04:25:24;;;;;;;4.85;1.00;;;10.20;99.90;;;;;;6243106;22;20008;-88
2023/11/02 04:27:50;;;;;;;3.58;1.05;;;10.50;99.90;;;;;;6243086;22;20044;-88
2023/11/02 04:30:16;;;;;;;2.80;1.10;;;11.40;99.90;;;;;;6217763;22;20000;-89
2023/11/02 04:32:42;;;;;;;3.38;1.40;;;10.10;99.90;;;;;;6217544;22;19988;-89
2023/11/02 04:35:10;;;;;;;5.85;1.33;;;10.10;99.90;;;;;;6243016;22;20000;-89
2023/11/02 04:37:36;;;;;;;3.67;1.25;;;10.10;99.90;;;;;;6216893;22;19997;-87
2023/11/02 04:40:03;;;;;;;4.03;1.20;;;11.70;99.90;;;;;;6217494;22;20009;-89
2023/11/02 04:42:29;;;;;;;5.80;1.55;;;10.00;99.90;;;;;;6242425;22;19996;-89
2023/11/02 04:44:57;;;;;;;3.70;1.13;;;10.00;99.90;;;;;;6242952;22;20004;-89
2023/11/02 04:47:23;;;;;;;5.90;1.48;;;10.00;99.90;;;;;;6243339;22;19999;-89
2023/11/02 04:49:50;;;;;;;4.45;1.23;;;11.10;99.90;;;;;;6217322;22;19993;-90
2023/11/02 04:52:16;;;;;;;3.83;1.00;;;9.90;99.90;;;;;;6243317;22;20005;-88
2023/11/02 04:54:41;;;;;;;3.92;1.00;;;9.90;99.90;;;;;;6217568;22;20019;-89
2023/11/02 04:57:07;;;;;;;4.05;1.20;;;9.90;99.90;;;;;;6243148;22;20093;-89
2023/11/02 04:59:42;;;;;;;4.03;1.27;;;9.90;99.90;;;;;;6214568;22;20039;-88
2023/11/02 05:04:56;;;;;;;1.60;0.93;;;9.80;99.90;;;;;;6239768;22;20019;-89
2023/11/02 05:15:10;;;;;;;4.35;1.40;;;9.90;99.90;;;;;;6214756;22;20028;-89
2023/11/02 05:17:43;;;;;;;2.95;1.20;;;10.00;99.90;;;;;;6241922;22;20064;-89
2023/11/02 05:20:34;;;;;;;4.03;1.27;;;9.90;99.90;;;;;;6216160;22;19996;-88
2023/11/02 05:23:24;;;;;;;5.35;1.73;;;9.90;99.90;;;;;;6216406;22;20028;-89
2023/11/02 06:57:57;;;;;;;1.35;0.70;;;11.60;99.90;;;;;;6200237;22;20012;-85
2023/11/02 08:07:46;;;;;;;3.97;1.10;;;12.50;99.90;;;;;;6201859;23;20043;-87
2023/11/02 08:10:12;;;;;;;3.17;1.17;;;12.40;99.90;;;;;;6205732;23;20001;-89
2023/11/02 08:12:37;;;;;;;4.93;1.00;;;12.40;99.90;;;;;;6227234;23;20012;-88
2023/11/02 08:15:03;;;;;;;2.47;0.90;;;12.50;99.90;;;;;;6202756;23;20024;-89
2023/11/02 08:17:29;;;;;;;3.72;1.10;;;12.50;99.90;;;;;;6199333;23;20086;-88
2023/11/02 08:19:56;;;;;;;6.43;1.50;;;12.50;99.90;;;;;;6226144;23;20055;-89
2023/11/02 08:22:22;;;;;;;2.60;0.93;;;12.50;99.90;;;;;;6227293;23;20004;-89
2023/11/02 08:24:47;;;;;;;3.17;0.95;;;12.40;99.90;;;;;;6227963;23;19997;-88
2023/11/02 08:27:15;;;;;;;2.45;0.90;;;12.50;99.90;;;;;;6205076;23;20004;-90
2023/11/02 08:29:40;;;;;;;3.28;1.00;;;13.40;99.90;;;;;;6205927;23;20027;-88
2023/11/02 08:32:07;;;;;;;1.55;0.80;;;12.30;99.90;;;;;;6230734;23;20005;-89
2023/11/02 08:34:32;;;;;;;2.05;0.90;;;13.00;99.90;;;;;;6232080;23;20004;-87
2023/11/02 08:36:58;;;;;;;1.27;0.70;;;12.70;99.90;;;;;;6208068;23;20317;-88
2023/11/02 08:39:24;;;;;;;1.17;0.70;;;12.80;99.90;;;;;;6206356;23;20015;-87
2023/11/02 08:41:50;;;;;;;2.00;0.90;;;11.90;99.90;;;;;;6206442;23;20028;-88
2023/11/02 08:44:16;;;;;;;1.02;0.68;;;12.80;99.90;;;;;;6232434;23;20004;-86
2023/11/02 08:46:41;;;;;;;1.63;0.70;;;13.30;99.90;;;;;;6202622;23;20147;-84
2023/11/02 08:49:07;;;;;;;4.57;0.80;;;12.90;99.90;;;;;;6203526;23;20060;-86
2023/11/02 08:51:33;;;;;;;1.80;0.65;;;13.80;99.90;;;;;;6228271;23;20004;-89
2023/11/02 08:54:00;;;;;;;1.45;0.70;;;13.00;99.90;;;;;;6203630;23;20359;-88
2023/11/02 08:56:25;;;;;;;1.60;0.60;;;13.00;99.90;;;;;;6202291;23;20008;-87
2023/11/02 08:58:52;;;;;;;1.50;0.90;;;13.00;99.90;;;;;;6229360;23;20008;-85
2023/11/02 09:01:24;;;;;;;2.25;0.80;;;13.30;99.90;;;;;;6225040;23;20011;-86
2023/11/02 09:03:55;;;;;;;1.77;0.50;;;13.00;99.90;;;;;;6199215;23;20008;-88
2023/11/02 09:06:23;;;;;;;1.30;0.50;;;13.50;99.90;;;;;;6201557;23;20004;-88
2023/11/02 09:08:49;;;;;;;3.35;1.35;;;14.00;99.90;;;;;;6216046;23;20008;-88
2023/11/02 09:11:16;;;;;;;1.58;0.77;;;14.10;99.90;;;;;;6223924;23;20000;-88
2023/11/02 09:13:42;;;;;;;2.50;0.70;;;13.30;99.90;;;;;;6222091;23;20015;-87
2023/11/02 09:16:09;;;;;;;1.23;0.65;;;14.30;99.90;;;;;;6225574;23;20434;-88
2023/11/02 09:18:35;;;;;;;1.90;0.73;;;14.60;99.90;;;;;;6220771;23;20016;-89
2023/11/02 09:21:01;;;;;;;3.75;0.90;;;14.30;99.90;;;;;;6219961;23;20016;-88
2023/11/02 09:23:27;;;;;;;2.75;0.80;;;13.20;99.90;;;;;;6220973;23;20013;-88
2023/11/02 09:25:53;;;;;;;1.67;0.80;;;13.90;99.90;;;;;;6222044;23;20019;-88
2023/11/02 09:28:19;;;;;;;2.00;0.70;;;14.80;99.90;;;;;;6222626;23;20016;-90
2023/11/02 09:30:46;;;;;;;2.78;0.60;;;14.90;99.90;;;;;;6219606;23;20079;-85
2023/11/02 09:33:12;;;;;;;3.30;0.68;;;13.40;99.90;;;;;;6218776;23;20005;-88
2023/11/02 09:35:38;;;;;;;2.97;0.80;;;14.70;99.90;;;;;;6222101;23;20013;-88
2023/11/02 09:38:04;;;;;;;2.83;0.90;;;13.40;99.90;;;;;;6218279;23;20451;-89
2023/11/02 09:40:31;;;;;;;1.95;0.82;;;14.20;99.90;;;;;;6194999;23;20013;-89
2023/11/02 09:43:02;;;;;;;6.47;1.52;;;13.20;99.90;;;;;;6221017;23;20088;-88
2023/11/02 09:45:29;;;;;;;4.15;0.98;;;13.50;99.90;;;;;;6222914;23;20000;-88
2023/11/02 09:47:56;;;;;;;3.45;0.98;;;14.70;99.90;;;;;;6220099;23;20008;-89
2023/11/02 09:50:24;;;;;;;4.53;0.90;;;13.40;99.90;;;;;;6222213;23;20000;-89
2023/11/02 09:52:49;;;;;;;4.85;1.15;;;14.20;99.90;;;;;;6221588;23;20001;-85
2023/11/02 09:55:15;;;;;;;5.18;1.00;;;13.80;99.90;;;;;;6219838;23;20004;-88
2023/11/02 09:57:42;;;;;;;3.88;1.20;;;13.40;99.90;;;;;;6221756;23;20444;-86
2023/11/02 10:00:08;;;;;;;3.95;0.80;;;13.50;99.90;;;;;;6221664;23;20008;-87
2023/11/02 10:02:35;;;;;;;4.07;1.10;;;13.40;99.90;;;;;;6220231;23;20008;-88
2023/11/02 10:05:03;;;;;;;7.35;0.90;;;13.40;99.90;;;;;;6224493;23;20009;-86
2023/11/02 10:07:29;;;;;;;5.18;1.23;;;12.70;99.90;;;;;;6225712;23;20439;-89
2023/11/02 10:09:54;;;;;;;3.42;1.02;;;13.50;99.90;;;;;;6233410;23;20019;-87
2023/11/02 10:12:20;;;;;;;4.68;1.17;;;14.30;99.90;;;;;;6234957;23;20004;-86
2023/11/02 10:14:46;;;;;;;3.45;0.95;;;14.60;99.90;;;;;;6209262;23;20043;-87
2023/11/02 10:17:12;;;;;;;3.45;1.00;;;13.40;99.90;;;;;;6210016;23;20008;-89
2023/11/02 10:19:38;;;;;;;4.10;1.25;;;14.00;99.90;;;;;;6214660;22;20024;-87
2023/11/02 10:22:05;;;;;;;4.85;1.00;;;15.00;99.90;;;;;;6213674;22;19997;-88
2023/11/02 10:24:35;;;;;;;6.22;0.90;;;13.40;99.90;;;;;;6212023;22;19997;-87
2023/11/02 10:27:03;;;;;;;4.32;1.08;;;13.70;99.90;;;;;;6215733;22;19992;-88
2023/11/02 10:29:30;;;;;;;5.45;0.98;;;13.40;99.90;;;;;;6215151;23;20019;-89
2023/11/02 10:31:56;;;;;;;4.03;0.85;;;13.40;99.90;;;;;;6213605;23;20039;-89
2023/11/02 10:34:26;;;;;;;6.10;1.10;;;14.60;99.90;;;;;;6236039;23;20016;-87
2023/11/02 10:36:53;;;;;;;2.70;1.30;;;13.40;99.90;;;;;;6234834;23;20028;-86
2023/11/02 10:39:23;;;;;;;3.58;0.95;;;14.20;99.90;;;;;;6230012;23;20053;-89
2023/11/02 10:41:59;;;;;;;4.20;0.90;;;13.30;99.90;;;;;;6228124;23;20427;-87
2023/11/02 10:44:29;;;;;;;4.40;1.20;;;12.00;99.90;;;;;;6203072;23;20013;-90
2023/11/02 10:47:00;;;;;;;5.13;0.80;;;13.30;99.90;;;;;;6204367;23;20001;-86
2023/11/02 10:49:36;;;;;;;4.35;1.13;;;13.30;99.90;;;;;;6232937;23;20000;-86
2023/11/02 10:52:08;;;;;;;3.83;1.00;;;13.20;99.90;;;;;;6233420;23;20021;-88
2023/11/02 10:54:54;;;;;;;4.78;0.90;;;13.20;99.90;;;;;;6233327;23;20005;-88
2023/11/02 10:57:22;;;;;;;5.18;1.05;;;14.10;99.90;;;;;;6205543;23;20005;-86
2023/11/02 10:59:48;;;;;;;4.47;1.23;;;11.90;99.90;;;;;;6231359;23;19985;-89
2023/11/02 11:02:18;;;;;;;4.07;0.93;;;14.60;99.90;;;;;;6206803;23;20012;-89
2023/11/02 11:04:47;;;;;;;4.15;1.33;;;13.10;99.90;;;;;;6233390;23;20008;-89
2023/11/02 11:07:13;;;;;;;2.80;0.93;;;13.10;99.90;;;;;;6230868;23;20001;-89
2023/11/02 11:09:42;;;;;;;2.83;0.90;;;14.40;99.90;;;;;;6203877;23;20039;-89
2023/11/02 11:12:08;;;;;;;6.75;1.00;;;13.40;99.90;;;;;;6229586;23;20013;-90
2023/11/02 11:14:37;;;;;;;3.05;0.88;;;13.20;99.90;;;;;;6230038;23;20008;-89
2023/11/02 11:17:04;;;;;;;4.22;1.35;;;13.20;99.90;;;;;;6204575;23;20004;-90
2023/11/02 11:19:32;;;;;;;5.75;1.27;;;13.20;99.90;;;;;;6209653;23;20092;-88
2023/11/02 11:22:06;;;;;;;4.22;1.38;;;13.20;99.90;;;;;;6231793;23;20012;-89
2023/11/02 11:24:32;;;;;;;4.35;0.95;;;13.20;99.90;;;;;;6239268;22;20001;-88
2023/11/02 11:26:59;;;;;;;5.03;1.10;;;13.20;99.90;;;;;;6234838;22;20009;-90
2023/11/02 11:29:42;;;;;;;3.92;1.10;;;13.20;99.90;;;;;;6210354;23;20060;-89
2023/11/02 11:32:29;;;;;;;3.05;0.90;;;13.30;99.90;;;;;;6209870;23;20012;-89
2023/11/02 11:34:55;;;;;;;5.22;1.35;;;13.60;99.90;;;;;;6236637;23;20000;-89
2023/11/02 11:37:57;;;;;;;5.25;1.55;;;13.30;99.90;;;;;;6233736;23;20008;-88
2023/11/02 11:40:32;;;;;;;4.78;1.05;;;12.60;99.90;;;;;;6205960;23;20001;-87
2023/11/02 11:43:15;;;;;;;5.57;1.10;;;13.40;99.90;;;;;;6207046;23;20064;-87
2023/11/02 11:45:46;;;;;;;3.25;0.90;;;13.40;99.90;;;;;;6234230;23;20001;-87
2023/11/02 11:48:32;;;;;;;3.67;0.70;;;13.60;99.90;;;;;;6207503;23;20188;-86
2023/11/02 11:50:59;;;;;;;4.47;1.40;;;13.30;99.90;;;;;;6206829;23;20007;-87
2023/11/02 11:53:25;;;;;;;7.70;1.17;;;13.30;99.90;;;;;;6203477;23;20008;-88
2023/11/02 11:55:51;;;;;;;3.42;0.95;;;13.30;99.90;;;;;;6231455;23;20004;-87
2023/11/02 11:58:37;;;;;;;2.47;0.77;;;13.20;99.90;;;;;;6204967;23;20005;-86
2023/11/02 12:01:04;;;;;;;4.32;0.90;;;14.50;99.90;;;;;;6209880;23;20011;-88
2023/11/02 12:03:36;;;;;;;2.55;0.80;;;14.20;99.90;;;;;;6204122;23;20000;-88
2023/11/02 12:06:04;;;;;;;2.67;0.70;;;13.30;99.90;;;;;;6230302;23;20001;-86
2023/11/02 12:08:41;;;;;;;2.03;0.70;;;13.20;99.90;;;;;;6218850;23;20016;-88
2023/11/02 12:11:06;;;;;;;6.80;0.98;;;13.20;99.90;;;;;;6227615;23;20020;-89
2023/11/02 12:13:40;;;;;;;3.30;0.93;;;14.00;99.90;;;;;;6228574;23;20016;-89
2023/11/02 12:16:06;;;;;;;3.42;1.00;;;13.20;99.90;;;;;;6227722;23;20000;-88
2023/11/02 12:18:34;;;;;;;3.75;1.00;;;12.10;99.90;;;;;;6204041;23;20416;-90
2023/11/02 12:21:10;;;;;;;4.10;0.90;;;14.80;99.90;;;;;;6229798;23;20004;-90
2023/11/02 12:23:41;;;;;;;4.57;1.35;;;13.30;99.90;;;;;;6228472;23;20083;-88
2023/11/02 12:26:08;;;;;;;3.78;0.90;;;13.40;99.90;;;;;;6228401;23;20004;-90
2023/11/02 12:28:44;;;;;;;6.03;1.10;;;13.70;99.90;;;;;;6233765;23;20017;-89
2023/11/02 12:31:12;;;;;;;3.92;1.20;;;13.60;99.90;;;;;;6231299;23;20012;-87
2023/11/02 12:33:39;;;;;;;3.45;1.00;;;13.60;99.90;;;;;;6225491;23;20040;-88
2023/11/02 12:36:05;;;;;;;6.93;1.20;;;13.80;99.90;;;;;;6222248;23;20072;-89
2023/11/02 12:38:50;;;;;;;3.58;1.10;;;13.70;99.90;;;;;;6221872;23;20012;-86
2023/11/02 12:41:29;;;;;;;2.53;0.88;;;13.60;99.90;;;;;;6222569;23;20001;-88
2023/11/02 12:44:08;;;;;;;5.40;1.25;;;14.60;99.90;;;;;;6220145;23;20008;-86
2023/11/02 12:46:45;;;;;;;6.30;1.20;;;12.20;99.90;;;;;;6221490;23;20009;-85
2023/11/02 12:49:25;;;;;;;7.55;1.40;;;13.70;99.90;;;;;;6221455;23;20001;-87
2023/11/02 12:51:54;;;;;;;3.35;0.95;;;13.70;99.90;;;;;;6225117;23;19996;-87
2023/11/02 12:54:20;;;;;;;3.60;1.48;;;14.20;99.90;;;;;;6223875;23;20004;-86
2023/11/02 12:56:53;;;;;;;6.80;1.10;;;13.80;99.90;;;;;;6222749;23;20008;-86
2023/11/02 12:59:22;;;;;;;4.72;1.00;;;14.30;99.90;;;;;;6224634;23;20009;-88
2023/11/02 13:01:54;;;;;;;5.93;0.90;;;13.70;99.90;;;;;;6224651;23;20001;-89
2023/11/02 13:04:24;;;;;;;4.00;1.08;;;13.80;99.90;;;;;;6221476;23;20012;-87
2023/11/02 13:06:51;;;;;;;5.82;1.17;;;14.50;99.90;;;;;;6223418;23;20000;-88
2023/11/02 13:09:18;;;;;;;6.78;1.30;;;14.20;99.90;;;;;;6222328;23;20013;-88
2023/11/02 13:11:47;;;;;;;4.80;1.17;;;14.10;99.90;;;;;;6234655;22;20020;-86
2023/11/02 13:14:18;;;;;;;9.63;2.20;;;14.50;99.90;;;;;;6235505;23;20001;-85
2023/11/02 13:16:45;;;;;;;8.52;1.42;;;14.20;99.90;;;;;;6225699;23;20031;-87
2023/11/02 13:19:14;;;;;;;5.07;1.10;;;15.30;99.90;;;;;;6222146;23;20004;-87
2023/11/02 13:21:40;;;;;;;5.75;1.30;;;14.30;99.90;;;;;;6221685;23;20001;-85
2023/11/02 13:24:08;;;;;;;5.65;1.35;;;15.10;99.90;;;;;;6221809;23;20013;-85
2023/11/02 13:26:35;;;;;;;9.43;1.30;;;14.40;99.90;;;;;;6224105;23;20089;-86
2023/11/02 13:29:00;;;;;;;7.18;1.38;;;14.40;99.90;;;;;;6221898;23;20001;-85
2023/11/02 13:31:28;;;;;;;4.57;1.50;;;16.00;99.90;;;;;;6221708;23;20007;-87
2023/11/02 13:33:54;;;;;;;5.22;1.10;;;14.40;99.90;;;;;;6221641;23;20020;-88
2023/11/02 13:36:20;;;;;;;6.80;1.30;;;16.30;99.90;;;;;;6223239;23;20391;-87
2023/11/02 13:38:48;;;;;;;5.88;1.20;;;14.90;99.90;;;;;;6224360;23;20004;-85
2023/11/02 13:41:14;;;;;;;3.13;1.10;;;14.60;99.90;;;;;;6225390;23;20020;-84
2023/11/02 13:43:40;;;;;;;6.55;1.20;;;;;;;;;;6223538;23;20447;-89
2023/11/02 13:46:06;;;;;;;5.25;1.70;;;;;;;;;;6229523;23;20001;-90
2023/11/02 13:48:32;;;;;;;6.45;1.13;;;14.20;99.90;;;;;;6230293;23;19993;-88
2023/11/02 13:50:59;;;;;;;4.50;1.48;;;;;;;;;;6229627;23;19996;-86
2023/11/02 13:53:24;;;;;;;4.55;1.25;;;14.20;99.90;;;;;;6226147;23;20092;-85
2023/11/02 13:55:50;;;;;;;3.78;1.08;;;;;;;;;;6231158;23;20011;-91
2023/11/02 13:58:16;;;;;;;8.23;1.90;;;14.20;99.90;;;;;;6231486;23;20027;-88
2023/11/02 14:00:42;;;;;;;4.65;1.30;;;15.20;99.90;;;;;;6228117;23;20005;-87
2023/11/02 14:03:08;;;;;;;5.78;1.27;;;16.00;99.90;;;;;;6221231;23;20016;-87
2023/11/02 14:05:35;;;;;;;4.55;1.20;;;16.50;99.90;;;;;;6224265;23;20075;-88
2023/11/02 14:08:01;;;;;;;3.78;1.30;;;14.80;99.90;;;;;;6222245;23;20001;-87
2023/11/02 14:10:28;;;;;;;3.33;1.08;;;14.10;99.90;;;;;;6221273;23;20001;-87
2023/11/02 14:12:53;;;;;;;3.65;1.05;;;14.20;99.90;;;;;;6219763;23;20508;-89
2023/11/02 14:15:19;;;;;;;4.28;1.52;;;;;;;;;;6223605;23;20004;-86
2023/11/02 14:17:46;;;;;;;5.28;1.08;;;13.90;99.90;;;;;;6220102;23;20019;-85
2023/11/02 14:20:11;;;;;;;6.20;1.40;;;13.70;99.90;;;;;;6215608;23;20336;-89
2023/11/02 14:22:37;;;;;;;4.43;1.10;;;13.70;99.90;;;;;;6218604;23;20060;-86
2023/11/02 14:25:04;;;;;;;5.72;1.23;;;13.80;99.90;;;;;;6221939;23;20050;-86
2023/11/02 14:27:31;;;;;;;5.07;1.13;;;13.70;99.90;;;;;;6218427;23;20001;-86
2023/11/02 14:29:56;;;;;;;3.63;0.90;;;14.80;99.90;;;;;;6219880;23;20007;-89
2023/11/02 14:32:23;;;;;;;3.47;1.00;;;14.90;99.90;;;;;;6220434;23;20009;-86
2023/11/02 14:34:49;;;;;;;4.25;1.10;;;13.70;99.90;;;;;;6215242;23;20011;-84
2023/11/02 14:37:14;;;;;;;5.20;1.40;;;14.70;99.90;;;;;;6216268;23;20012;-87
2023/11/02 14:39:41;;;;;;;5.15;0.95;;;13.60;99.90;;;;;;6216740;23;20028;-88
2023/11/02 14:42:08;;;;;;;7.30;1.15;;;13.60;99.90;;;;;;6218311;23;20000;-87
2023/11/02 14:44:35;;;;;;;5.55;1.27;;;13.40;99.90;;;;;;6219255;23;20009;-87
2023/11/02 14:47:01;;;;;;;6.80;1.30;;;14.50;99.90;;;;;;6221281;23;20001;-86
2023/11/02 14:49:27;;;;;;;6.05;1.00;;;15.50;99.90;;;;;;6217953;23;20713;-89
2023/11/02 14:51:53;;;;;;;6.63;1.40;;;15.80;99.90;;;;;;6218345;23;20399;-86
2023/11/02 14:54:18;;;;;;;5.38;0.82;;;13.40;99.90;;;;;;6218588;23;20004;-88
2023/11/02 14:56:44;;;;;;;4.85;1.30;;;15.40;99.90;;;;;;6218887;23;20028;-84
2023/11/02 14:59:10;;;;;;;3.65;0.80;;;14.40;99.90;;;;;;6217433;23;20035;-86
2023/11/02 15:01:35;;;;;;;4.43;0.80;;;13.80;99.90;;;;;;6216444;23;20000;-85
2023/11/02 15:04:03;;;;;;;4.38;0.93;;;15.70;99.90;;;;;;6220417;23;20451;-86
2023/11/02 15:06:29;;;;;;;2.78;0.90;;;13.80;99.90;;;;;;6219384;23;20068;-85
2023/11/02 15:08:55;;;;;;;4.25;1.40;;;13.40;99.90;;;;;;6217593;23;20064;-87
2023/11/02 15:11:22;;;;;;;3.88;1.00;;;13.30;99.90;;;;;;6222587;23;19997;-86
2023/11/02 15:13:48;;;;;;;4.25;1.23;;;14.10;99.90;;;;;;6224045;23;20009;-88
2023/11/02 15:16:14;;;;;;;6.78;1.10;;;12.20;99.90;;;;;;6220124;23;20079;-86
2023/11/02 15:18:41;;;;;;;5.90;1.00;;;13.20;99.90;;;;;;6221932;23;20001;-83
2023/11/02 15:21:11;;;;;;;3.50;0.98;;;13.20;99.90;;;;;;6223927;23;20008;-89
2023/11/02 15:23:37;;;;;;;5.65;1.20;;;13.10;99.90;;;;;;6218940;23;20008;-86
2023/11/02 15:26:03;;;;;;;2.58;0.82;;;13.10;99.90;;;;;;6221166;23;20055;-89
2023/11/02 15:28:29;;;;;;;4.00;1.05;;;13.00;99.90;;;;;;6224785;23;19997;-88
2023/11/02 15:30:55;;;;;;;4.53;1.35;;;13.00;99.90;;;;;;6222962;23;20005;-88
2023/11/02 15:33:21;;;;;;;8.18;1.40;;;12.90;99.90;;;;;;6218602;23;20039;-87
2023/11/02 15:35:47;;;;;;;3.80;1.13;;;14.50;99.90;;;;;;6220035;23;20005;-86
2023/11/02 15:38:13;;;;;;;3.85;1.20;;;12.80;99.90;;;;;;6219131;23;20101;-89
2023/11/02 15:40:43;;;;;;;4.13;1.10;;;12.80;99.90;;;;;;6226218;23;20023;-88
2023/11/02 15:43:10;;;;;;;6.90;1.33;;;15.00;99.90;;;;;;6224821;23;20000;-85
2023/11/02 15:45:39;;;;;;;2.00;0.70;;;14.00;99.90;;;;;;6224109;23;20000;-86
2023/11/02 15:48:15;;;;;;;4.60;1.05;;;12.60;99.90;;;;;;6225872;23;20060;-85
2023/11/02 15:50:45;;;;;;;3.47;1.00;;;12.80;99.90;;;;;;6223750;23;19997;-87
2023/11/02 15:53:20;;;;;;;3.47;0.80;;;13.40;99.90;;;;;;6221814;23;20020;-87
2023/11/02 15:57:00;;;;;;;6.53;1.02;;;12.50;99.90;;;;;;6231401;23;20000;-86
2023/11/02 15:59:26;;;;;;;10.27;2.45;;;12.30;99.90;;;;;;6225243;23;20004;-89
2023/11/02 16:01:53;;;;;;;4.05;1.13;;;12.40;99.90;;;;;;6223578;23;20008;-86
2023/11/02 16:04:31;;;;;;;;;;;;;;;;;;;;;
2023/11/02 16:06:57;;;;;;;4.57;1.20;;;12.00;99.90;;;;;;6223859;23;20020;-88
2023/11/02 16:09:26;;;;;;;3.67;1.02;;;12.20;99.90;;;;;;6195905;23;20075;-88
2023/11/02 16:11:55;;;;;;;3.28;0.90;;;12.50;99.90;;;;;;6196522;23;20324;-88
2023/11/02 16:14:20;;;;;;;3.53;1.10;;;13.90;99.90;;;;;;6171148;23;20439;-88
2023/11/02 16:17:30;;;;;;;2.78;0.77;;;12.20;99.90;;;;;;6222847;23;20033;-86
2023/11/02 16:19:58;;;;;;;2.67;0.80;;;12.30;99.90;;;;;;6218487;23;20010;-87